sensor_id;sensor_type;location;lat;lon;timestamp;pressure;altitude;pressure_sealevel;temperature
9985;BMP180;16737;50.932;6.780;2022-12-18T00:01:19;101282.00;;;-1.40
9985;BMP180;16737;50.932;6.780;2022-12-18T00:03:46;101283.00;;;-1.30
9985;BMP180;16737;50.932;6.780;2022-12-18T00:06:14;101279.00;;;-1.30
9985;BMP180;16737;50.932;6.780;2022-12-18T00:08:41;101275.00;;;-1.40
9985;BMP180;16737;50.932;6.780;2022-12-18T00:11:12;101287.00;;;-1.40
9985;BMP180;16737;50.932;6.780;2022-12-18T00:13:39;101281.00;;;-1.30
9985;BMP180;16737;50.932;6.780;2022-12-18T00:16:10;101286.00;;;-1.40
9985;BMP180;16737;50.932;6.780;2022-12-18T00:18:38;101287.00;;;-1.40
9985;BMP180;16737;50.932;6.780;2022-12-18T00:21:09;101293.00;;;-1.40
9985;BMP180;16737;50.932;6.780;2022-12-18T00:23:38;101287.00;;;-1.30
9985;BMP180;16737;50.932;6.780;2022-12-18T00:26:08;101297.00;;;-1.30
9985;BMP180;16737;50.932;6.780;2022-12-18T00:28:36;101291.00;;;-1.30
9985;BMP180;16737;50.932;6.780;2022-12-18T00:31:06;101293.00;;;-1.30
9985;BMP180;16737;50.932;6.780;2022-12-18T00:33:34;101297.00;;;-1.30
9985;BMP180;16737;50.932;6.780;2022-12-18T00:36:05;101292.00;;;-1.40
9985;BMP180;16737;50.932;6.780;2022-12-18T00:38:33;101289.00;;;-1.30
9985;BMP180;16737;50.932;6.780;2022-12-18T00:41:00;101280.00;;;-1.30
9985;BMP180;16737;50.932;6.780;2022-12-18T00:43:27;101281.00;;;-1.30
9985;BMP180;16737;50.932;6.780;2022-12-18T00:45:53;101283.00;;;-1.30
9985;BMP180;16737;50.932;6.780;2022-12-18T00:48:22;101284.00;;;-1.30
9985;BMP180;16737;50.932;6.780;2022-12-18T00:50:49;101277.00;;;-1.30
9985;BMP180;16737;50.932;6.780;2022-12-18T00:53:18;101285.00;;;-1.40
9985;BMP180;16737;50.932;6.780;2022-12-18T00:55:45;101305.00;;;-1.30
9985;BMP180;16737;50.932;6.780;2022-12-18T00:58:15;101292.00;;;-1.30
9985;BMP180;16737;50.932;6.780;2022-12-18T01:00:42;101282.00;;;-1.30
9985;BMP180;16737;50.932;6.780;2022-12-18T01:03:12;101284.00;;;-1.30
9985;BMP180;16737;50.932;6.780;2022-12-18T01:05:40;101289.00;;;-1.30
9985;BMP180;16737;50.932;6.780;2022-12-18T01:08:08;101289.00;;;-1.30
9985;BMP180;16737;50.932;6.780;2022-12-18T01:10:39;101289.00;;;-1.30
9985;BMP180;16737;50.932;6.780;2022-12-18T01:13:06;101271.00;;;-1.20
9985;BMP180;16737;50.932;6.780;2022-12-18T01:15:34;101282.00;;;-1.30
9985;BMP180;16737;50.932;6.780;2022-12-18T01:18:00;101288.00;;;-1.20
9985;BMP180;16737;50.932;6.780;2022-12-18T01:20:34;101287.00;;;-1.20
9985;BMP180;16737;50.932;6.780;2022-12-18T01:23:01;101294.00;;;-1.10
9985;BMP180;16737;50.932;6.780;2022-12-18T01:25:28;101294.00;;;-1.10
9985;BMP180;16737;50.932;6.780;2022-12-18T01:27:57;101282.00;;;-1.10
9985;BMP180;16737;50.932;6.780;2022-12-18T01:30:24;101286.00;;;-1.10
9985;BMP180;16737;50.932;6.780;2022-12-18T01:32:51;101250.00;;;-1.10
9985;BMP180;16737;50.932;6.780;2022-12-18T01:35:17;101265.00;;;-1.10
9985;BMP180;16737;50.932;6.780;2022-12-18T01:37:44;101267.00;;;-1.20
9985;BMP180;16737;50.932;6.780;2022-12-18T01:40:12;101236.00;;;-1.20
9985;BMP180;16737;50.932;6.780;2022-12-18T01:42:39;101273.00;;;-1.20
9985;BMP180;16737;50.932;6.780;2022-12-18T01:45:24;101286.00;;;-1.20
9985;BMP180;16737;50.932;6.780;2022-12-18T01:47:55;101286.00;;;-1.20
9985;BMP180;16737;50.932;6.780;2022-12-18T01:50:28;101279.00;;;-1.30
9985;BMP180;16737;50.932;6.780;2022-12-18T01:53:03;101275.00;;;-1.30
9985;BMP180;16737;50.932;6.780;2022-12-18T01:55:39;101276.00;;;-1.30
9985;BMP180;16737;50.932;6.780;2022-12-18T01:58:08;101281.00;;;-1.30
9985;BMP180;16737;50.932;6.780;2022-12-18T02:00:36;101275.00;;;-1.30
9985;BMP180;16737;50.932;6.780;2022-12-18T02:03:03;101260.00;;;-1.30
9985;BMP180;16737;50.932;6.780;2022-12-18T02:05:43;101266.00;;;-1.40
9985;BMP180;16737;50.932;6.780;2022-12-18T02:08:16;101247.00;;;-1.40
9985;BMP180;16737;50.932;6.780;2022-12-18T02:10:57;101279.00;;;-1.40
9985;BMP180;16737;50.932;6.780;2022-12-18T02:13:34;101270.00;;;-1.40
9985;BMP180;16737;50.932;6.780;2022-12-18T02:16:13;101263.00;;;-1.40
9985;BMP180;16737;50.932;6.780;2022-12-18T02:18:49;101267.00;;;-1.40
9985;BMP180;16737;50.932;6.780;2022-12-18T02:21:32;101265.00;;;-1.40
9985;BMP180;16737;50.932;6.780;2022-12-18T02:24:17;101271.00;;;-1.40
9985;BMP180;16737;50.932;6.780;2022-12-18T02:26:55;101264.00;;;-1.40
9985;BMP180;16737;50.932;6.780;2022-12-18T02:29:31;101268.00;;;-1.40
9985;BMP180;16737;50.932;6.780;2022-12-18T02:32:06;101267.00;;;-1.40
9985;BMP180;16737;50.932;6.780;2022-12-18T02:34:39;101262.00;;;-1.40
9985;BMP180;16737;50.932;6.780;2022-12-18T02:37:11;101268.00;;;-1.40
9985;BMP180;16737;50.932;6.780;2022-12-18T02:39:42;101272.00;;;-1.40
9985;BMP180;16737;50.932;6.780;2022-12-18T02:42:12;101274.00;;;-1.30
9985;BMP180;16737;50.932;6.780;2022-12-18T02:44:44;101274.00;;;-1.30
9985;BMP180;16737;50.932;6.780;2022-12-18T02:47:14;101252.00;;;-1.30
9985;BMP180;16737;50.932;6.780;2022-12-18T02:49:52;101266.00;;;-1.30
9985;BMP180;16737;50.932;6.780;2022-12-18T02:52:30;101262.00;;;-1.30
9985;BMP180;16737;50.932;6.780;2022-12-18T02:55:16;101260.00;;;-1.30
9985;BMP180;16737;50.932;6.780;2022-12-18T02:57:54;101236.00;;;-1.30
9985;BMP180;16737;50.932;6.780;2022-12-18T03:00:28;101269.00;;;-1.30
9985;BMP180;16737;50.932;6.780;2022-12-18T03:03:03;101258.00;;;-1.40
9985;BMP180;16737;50.932;6.780;2022-12-18T03:05:38;101250.00;;;-1.40
9985;BMP180;16737;50.932;6.780;2022-12-18T03:08:14;101254.00;;;-1.40
9985;BMP180;16737;50.932;6.780;2022-12-18T03:10:49;101253.00;;;-1.40
9985;BMP180;16737;50.932;6.780;2022-12-18T03:13:24;101246.00;;;-1.50
9985;BMP180;16737;50.932;6.780;2022-12-18T03:15:58;101255.00;;;-1.50
9985;BMP180;16737;50.932;6.780;2022-12-18T03:18:33;101248.00;;;-1.50
9985;BMP180;16737;50.932;6.780;2022-12-18T03:21:06;101247.00;;;-1.50
9985;BMP180;16737;50.932;6.780;2022-12-18T03:23:40;101232.00;;;-1.60
9985;BMP180;16737;50.932;6.780;2022-12-18T03:26:12;101232.00;;;-1.60
9985;BMP180;16737;50.932;6.780;2022-12-18T03:28:49;101224.00;;;-1.60
9985;BMP180;16737;50.932;6.780;2022-12-18T03:31:20;101225.00;;;-1.60
9985;BMP180;16737;50.932;6.780;2022-12-18T03:33:53;101218.00;;;-1.60
9985;BMP180;16737;50.932;6.780;2022-12-18T03:36:21;101227.00;;;-1.60
9985;BMP180;16737;50.932;6.780;2022-12-18T03:38:48;101218.00;;;-1.60
9985;BMP180;16737;50.932;6.780;2022-12-18T03:41:25;101236.00;;;-1.70
9985;BMP180;16737;50.932;6.780;2022-12-18T03:44:05;101231.00;;;-1.70
9985;BMP180;16737;50.932;6.780;2022-12-18T03:46:41;101230.00;;;-1.70
9985;BMP180;16737;50.932;6.780;2022-12-18T03:49:14;101239.00;;;-1.70
9985;BMP180;16737;50.932;6.780;2022-12-18T03:51:53;101204.00;;;-1.60
9985;BMP180;16737;50.932;6.780;2022-12-18T03:54:23;101241.00;;;-1.60
9985;BMP180;16737;50.932;6.780;2022-12-18T03:56:58;101216.00;;;-1.60
9985;BMP180;16737;50.932;6.780;2022-12-18T03:59:34;101232.00;;;-1.60
9985;BMP180;16737;50.932;6.780;2022-12-18T04:02:04;101234.00;;;-1.60
9985;BMP180;16737;50.932;6.780;2022-12-18T04:04:33;101230.00;;;-1.60
9985;BMP180;16737;50.932;6.780;2022-12-18T04:07:01;101216.00;;;-1.60
9985;BMP180;16737;50.932;6.780;2022-12-18T04:09:31;101206.00;;;-1.60
9985;BMP180;16737;50.932;6.780;2022-12-18T04:11:59;101196.00;;;-1.60
9985;BMP180;16737;50.932;6.780;2022-12-18T04:14:26;101214.00;;;-1.60
9985;BMP180;16737;50.932;6.780;2022-12-18T04:16:55;101229.00;;;-1.60
9985;BMP180;16737;50.932;6.780;2022-12-18T04:19:22;101195.00;;;-1.60
9985;BMP180;16737;50.932;6.780;2022-12-18T04:21:48;101206.00;;;-1.60
9985;BMP180;16737;50.932;6.780;2022-12-18T04:24:15;101204.00;;;-1.60
9985;BMP180;16737;50.932;6.780;2022-12-18T04:26:42;101201.00;;;-1.60
9985;BMP180;16737;50.932;6.780;2022-12-18T04:29:09;101200.00;;;-1.60
9985;BMP180;16737;50.932;6.780;2022-12-18T04:31:36;101182.00;;;-1.60
9985;BMP180;16737;50.932;6.780;2022-12-18T04:34:05;101195.00;;;-1.60
9985;BMP180;16737;50.932;6.780;2022-12-18T04:36:32;101180.00;;;-1.60
9985;BMP180;16737;50.932;6.780;2022-12-18T04:38:59;101209.00;;;-1.60
9985;BMP180;16737;50.932;6.780;2022-12-18T04:41:26;101191.00;;;-1.60
9985;BMP180;16737;50.932;6.780;2022-12-18T04:43:53;101183.00;;;-1.60
9985;BMP180;16737;50.932;6.780;2022-12-18T04:46:20;101171.00;;;-1.60
9985;BMP180;16737;50.932;6.780;2022-12-18T04:48:47;101196.00;;;-1.60
9985;BMP180;16737;50.932;6.780;2022-12-18T04:51:15;101172.00;;;-1.70
9985;BMP180;16737;50.932;6.780;2022-12-18T04:53:42;101192.00;;;-1.70
9985;BMP180;16737;50.932;6.780;2022-12-18T04:56:12;101190.00;;;-1.70
9985;BMP180;16737;50.932;6.780;2022-12-18T04:58:42;101164.00;;;-1.70
9985;BMP180;16737;50.932;6.780;2022-12-18T05:01:10;101184.00;;;-1.80
9985;BMP180;16737;50.932;6.780;2022-12-18T05:03:38;101179.00;;;-1.80
9985;BMP180;16737;50.932;6.780;2022-12-18T05:06:07;101177.00;;;-1.80
9985;BMP180;16737;50.932;6.780;2022-12-18T05:08:35;101180.00;;;-1.80
9985;BMP180;16737;50.932;6.780;2022-12-18T05:11:04;101157.00;;;-1.80
9985;BMP180;16737;50.932;6.780;2022-12-18T05:13:32;101172.00;;;-1.80
9985;BMP180;16737;50.932;6.780;2022-12-18T05:15:59;101166.00;;;-1.80
9985;BMP180;16737;50.932;6.780;2022-12-18T05:18:27;101174.00;;;-1.80
9985;BMP180;16737;50.932;6.780;2022-12-18T05:20:55;101187.00;;;-1.90
9985;BMP180;16737;50.932;6.780;2022-12-18T05:23:23;101177.00;;;-1.80
9985;BMP180;16737;50.932;6.780;2022-12-18T05:25:53;101177.00;;;-1.90
9985;BMP180;16737;50.932;6.780;2022-12-18T05:28:22;101178.00;;;-1.80
9985;BMP180;16737;50.932;6.780;2022-12-18T05:30:50;101195.00;;;-1.90
9985;BMP180;16737;50.932;6.780;2022-12-18T05:33:18;101183.00;;;-1.90
9985;BMP180;16737;50.932;6.780;2022-12-18T05:35:50;101192.00;;;-1.90
9985;BMP180;16737;50.932;6.780;2022-12-18T05:38:17;101198.00;;;-1.90
9985;BMP180;16737;50.932;6.780;2022-12-18T05:40:44;101192.00;;;-1.90
9985;BMP180;16737;50.932;6.780;2022-12-18T05:43:13;101194.00;;;-1.90
9985;BMP180;16737;50.932;6.780;2022-12-18T05:45:41;101183.00;;;-1.90
9985;BMP180;16737;50.932;6.780;2022-12-18T05:48:11;101156.00;;;-1.90
9985;BMP180;16737;50.932;6.780;2022-12-18T05:50:41;101210.00;;;-1.90
9985;BMP180;16737;50.932;6.780;2022-12-18T05:53:08;101212.00;;;-1.90
9985;BMP180;16737;50.932;6.780;2022-12-18T05:55:37;101231.00;;;-1.90
9985;BMP180;16737;50.932;6.780;2022-12-18T05:58:07;101227.00;;;-1.90
9985;BMP180;16737;50.932;6.780;2022-12-18T06:00:38;101249.00;;;-1.80
9985;BMP180;16737;50.932;6.780;2022-12-18T06:03:07;101232.00;;;-1.80
9985;BMP180;16737;50.932;6.780;2022-12-18T06:05:37;101218.00;;;-1.80
9985;BMP180;16737;50.932;6.780;2022-12-18T06:08:05;101240.00;;;-1.90
9985;BMP180;16737;50.932;6.780;2022-12-18T06:10:32;101252.00;;;-1.80
9985;BMP180;16737;50.932;6.780;2022-12-18T06:12:59;101206.00;;;-1.80
9985;BMP180;16737;50.932;6.780;2022-12-18T06:15:26;101237.00;;;-1.80
9985;BMP180;16737;50.932;6.780;2022-12-18T06:17:54;101238.00;;;-1.90
9985;BMP180;16737;50.932;6.780;2022-12-18T06:20:22;101239.00;;;-1.90
9985;BMP180;16737;50.932;6.780;2022-12-18T06:22:49;101251.00;;;-1.90
9985;BMP180;16737;50.932;6.780;2022-12-18T06:25:16;101242.00;;;-1.90
9985;BMP180;16737;50.932;6.780;2022-12-18T06:27:43;101246.00;;;-1.90
9985;BMP180;16737;50.932;6.780;2022-12-18T06:30:11;101240.00;;;-1.90
9985;BMP180;16737;50.932;6.780;2022-12-18T06:32:39;101239.00;;;-1.90
9985;BMP180;16737;50.932;6.780;2022-12-18T06:35:08;101237.00;;;-1.90
9985;BMP180;16737;50.932;6.780;2022-12-18T06:37:35;101225.00;;;-1.90
9985;BMP180;16737;50.932;6.780;2022-12-18T06:40:02;101238.00;;;-1.90
9985;BMP180;16737;50.932;6.780;2022-12-18T06:42:29;101243.00;;;-1.80
9985;BMP180;16737;50.932;6.780;2022-12-18T06:44:57;101247.00;;;-1.80
9985;BMP180;16737;50.932;6.780;2022-12-18T06:47:24;101205.00;;;-1.80
9985;BMP180;16737;50.932;6.780;2022-12-18T06:49:51;101215.00;;;-1.80
9985;BMP180;16737;50.932;6.780;2022-12-18T06:52:20;101225.00;;;-1.80
9985;BMP180;16737;50.932;6.780;2022-12-18T06:54:47;101224.00;;;-1.80
9985;BMP180;16737;50.932;6.780;2022-12-18T06:57:13;101218.00;;;-1.80
9985;BMP180;16737;50.932;6.780;2022-12-18T06:59:40;101216.00;;;-1.80
9985;BMP180;16737;50.932;6.780;2022-12-18T07:02:11;101218.00;;;-1.80
9985;BMP180;16737;50.932;6.780;2022-12-18T07:04:38;101187.00;;;-1.80
9985;BMP180;16737;50.932;6.780;2022-12-18T07:07:05;101215.00;;;-1.80
9985;BMP180;16737;50.932;6.780;2022-12-18T07:09:34;101130.00;;;-1.90
9985;BMP180;16737;50.932;6.780;2022-12-18T07:12:01;101215.00;;;-1.80
9985;BMP180;16737;50.932;6.780;2022-12-18T07:14:28;101215.00;;;-1.80
9985;BMP180;16737;50.932;6.780;2022-12-18T07:16:55;101226.00;;;-1.80
9985;BMP180;16737;50.932;6.780;2022-12-18T07:19:25;101175.00;;;-1.80
9985;BMP180;16737;50.932;6.780;2022-12-18T07:21:52;101217.00;;;-1.80
9985;BMP180;16737;50.932;6.780;2022-12-18T07:24:19;101173.00;;;-1.80
9985;BMP180;16737;50.932;6.780;2022-12-18T07:26:47;101194.00;;;-1.80
9985;BMP180;16737;50.932;6.780;2022-12-18T07:29:14;101194.00;;;-1.80
9985;BMP180;16737;50.932;6.780;2022-12-18T07:31:41;101198.00;;;-1.80
9985;BMP180;16737;50.932;6.780;2022-12-18T07:34:10;101176.00;;;-1.70
9985;BMP180;16737;50.932;6.780;2022-12-18T07:36:38;101194.00;;;-1.70
9985;BMP180;16737;50.932;6.780;2022-12-18T07:39:05;101203.00;;;-1.70
9985;BMP180;16737;50.932;6.780;2022-12-18T07:41:35;101187.00;;;-1.70
9985;BMP180;16737;50.932;6.780;2022-12-18T07:44:04;101221.00;;;-1.70
9985;BMP180;16737;50.932;6.780;2022-12-18T07:46:30;101224.00;;;-1.70
9985;BMP180;16737;50.932;6.780;2022-12-18T07:48:57;101210.00;;;-1.60
9985;BMP180;16737;50.932;6.780;2022-12-18T07:51:24;101218.00;;;-1.60
9985;BMP180;16737;50.932;6.780;2022-12-18T07:53:51;101200.00;;;-1.60
9985;BMP180;16737;50.932;6.780;2022-12-18T07:56:19;101198.00;;;-1.60
9985;BMP180;16737;50.932;6.780;2022-12-18T07:58:47;101169.00;;;-1.60
9985;BMP180;16737;50.932;6.780;2022-12-18T08:01:15;101208.00;;;-1.50
9985;BMP180;16737;50.932;6.780;2022-12-18T08:03:43;101200.00;;;-1.50
9985;BMP180;16737;50.932;6.780;2022-12-18T08:06:10;101193.00;;;-1.50
9985;BMP180;16737;50.932;6.780;2022-12-18T08:08:37;101183.00;;;-1.40
9985;BMP180;16737;50.932;6.780;2022-12-18T08:11:06;101179.00;;;-1.40
9985;BMP180;16737;50.932;6.780;2022-12-18T08:13:33;101172.00;;;-1.30
9985;BMP180;16737;50.932;6.780;2022-12-18T08:16:03;101185.00;;;-1.30
9985;BMP180;16737;50.932;6.780;2022-12-18T08:18:36;101163.00;;;-1.30
9985;BMP180;16737;50.932;6.780;2022-12-18T08:21:11;101169.00;;;-1.20
9985;BMP180;16737;50.932;6.780;2022-12-18T08:23:38;101164.00;;;-1.20
9985;BMP180;16737;50.932;6.780;2022-12-18T08:26:06;101164.00;;;-1.10
9985;BMP180;16737;50.932;6.780;2022-12-18T08:28:33;101156.00;;;-1.10
9985;BMP180;16737;50.932;6.780;2022-12-18T08:31:00;101169.00;;;-1.00
9985;BMP180;16737;50.932;6.780;2022-12-18T08:33:27;101159.00;;;-1.00
9985;BMP180;16737;50.932;6.780;2022-12-18T08:35:56;101159.00;;;-0.90
9985;BMP180;16737;50.932;6.780;2022-12-18T08:38:24;101174.00;;;-0.90
9985;BMP180;16737;50.932;6.780;2022-12-18T08:40:58;101149.00;;;-0.80
9985;BMP180;16737;50.932;6.780;2022-12-18T08:43:25;101153.00;;;-0.80
9985;BMP180;16737;50.932;6.780;2022-12-18T08:46:10;101154.00;;;-0.70
9985;BMP180;16737;50.932;6.780;2022-12-18T08:48:37;101158.00;;;-0.70
9985;BMP180;16737;50.932;6.780;2022-12-18T08:51:06;101162.00;;;-0.70
9985;BMP180;16737;50.932;6.780;2022-12-18T08:53:35;101144.00;;;-0.60
9985;BMP180;16737;50.932;6.780;2022-12-18T08:56:02;101163.00;;;-0.60
9985;BMP180;16737;50.932;6.780;2022-12-18T08:58:30;101147.00;;;-0.50
9985;BMP180;16737;50.932;6.780;2022-12-18T09:01:00;101164.00;;;-0.40
9985;BMP180;16737;50.932;6.780;2022-12-18T09:03:27;101145.00;;;-0.40
9985;BMP180;16737;50.932;6.780;2022-12-18T09:05:55;101141.00;;;-0.40
9985;BMP180;16737;50.932;6.780;2022-12-18T09:08:23;101157.00;;;-0.30
9985;BMP180;16737;50.932;6.780;2022-12-18T09:10:53;101150.00;;;-0.20
9985;BMP180;16737;50.932;6.780;2022-12-18T09:13:21;101163.00;;;-0.20
9985;BMP180;16737;50.932;6.780;2022-12-18T09:15:51;101156.00;;;-0.10
9985;BMP180;16737;50.932;6.780;2022-12-18T09:18:20;101171.00;;;-0.10
9985;BMP180;16737;50.932;6.780;2022-12-18T09:20:47;101170.00;;;-0.10
9985;BMP180;16737;50.932;6.780;2022-12-18T09:23:15;101173.00;;;0.00
9985;BMP180;16737;50.932;6.780;2022-12-18T09:25:44;101164.00;;;0.00
9985;BMP180;16737;50.932;6.780;2022-12-18T09:28:17;101159.00;;;0.10
9985;BMP180;16737;50.932;6.780;2022-12-18T09:30:48;101159.00;;;0.20
9985;BMP180;16737;50.932;6.780;2022-12-18T09:33:16;101136.00;;;0.20
9985;BMP180;16737;50.932;6.780;2022-12-18T09:35:44;101137.00;;;0.30
9985;BMP180;16737;50.932;6.780;2022-12-18T09:38:15;101143.00;;;0.40
9985;BMP180;16737;50.932;6.780;2022-12-18T09:40:51;101119.00;;;0.30
9985;BMP180;16737;50.932;6.780;2022-12-18T09:43:24;101105.00;;;0.50
9985;BMP180;16737;50.932;6.780;2022-12-18T09:46:00;101103.00;;;0.50
9985;BMP180;16737;50.932;6.780;2022-12-18T09:48:31;101095.00;;;0.60
9985;BMP180;16737;50.932;6.780;2022-12-18T09:51:05;101126.00;;;0.60
9985;BMP180;16737;50.932;6.780;2022-12-18T09:53:38;101114.00;;;0.70
9985;BMP180;16737;50.932;6.780;2022-12-18T09:56:16;101115.00;;;0.70
9985;BMP180;16737;50.932;6.780;2022-12-18T09:58:51;101094.00;;;0.80
9985;BMP180;16737;50.932;6.780;2022-12-18T10:01:22;101099.00;;;0.70
9985;BMP180;16737;50.932;6.780;2022-12-18T10:03:50;101087.00;;;0.90
9985;BMP180;16737;50.932;6.780;2022-12-18T10:06:23;101102.00;;;0.90
9985;BMP180;16737;50.932;6.780;2022-12-18T10:08:58;101109.00;;;1.00
9985;BMP180;16737;50.932;6.780;2022-12-18T10:11:39;101108.00;;;1.00
9985;BMP180;16737;50.932;6.780;2022-12-18T10:14:18;101082.00;;;1.00
9985;BMP180;16737;50.932;6.780;2022-12-18T10:16:59;101100.00;;;1.10
9985;BMP180;16737;50.932;6.780;2022-12-18T10:19:43;101103.00;;;1.10
9985;BMP180;16737;50.932;6.780;2022-12-18T10:22:26;101092.00;;;1.20
9985;BMP180;16737;50.932;6.780;2022-12-18T10:25:03;101114.00;;;1.30
9985;BMP180;16737;50.932;6.780;2022-12-18T10:27:34;101094.00;;;1.30
9985;BMP180;16737;50.932;6.780;2022-12-18T10:30:12;101101.00;;;1.40
9985;BMP180;16737;50.932;6.780;2022-12-18T10:32:39;101109.00;;;1.50
9985;BMP180;16737;50.932;6.780;2022-12-18T10:35:17;101091.00;;;1.50
9985;BMP180;16737;50.932;6.780;2022-12-18T10:38:04;101091.00;;;1.60
9985;BMP180;16737;50.932;6.780;2022-12-18T10:40:32;101079.00;;;1.60
9985;BMP180;16737;50.932;6.780;2022-12-18T10:43:13;101080.00;;;1.70
9985;BMP180;16737;50.932;6.780;2022-12-18T10:45:41;101100.00;;;1.70
9985;BMP180;16737;50.932;6.780;2022-12-18T10:48:19;101051.00;;;1.70
9985;BMP180;16737;50.932;6.780;2022-12-18T10:50:50;101077.00;;;1.80
9985;BMP180;16737;50.932;6.780;2022-12-18T10:53:22;101070.00;;;1.80
9985;BMP180;16737;50.932;6.780;2022-12-18T10:55:52;101051.00;;;1.90
9985;BMP180;16737;50.932;6.780;2022-12-18T10:58:27;101027.00;;;1.90
9985;BMP180;16737;50.932;6.780;2022-12-18T11:01:12;101051.00;;;1.90
9985;BMP180;16737;50.932;6.780;2022-12-18T11:03:42;101055.00;;;1.90
9985;BMP180;16737;50.932;6.780;2022-12-18T11:06:12;101049.00;;;1.90
9985;BMP180;16737;50.932;6.780;2022-12-18T11:08:41;101058.00;;;2.00
9985;BMP180;16737;50.932;6.780;2022-12-18T11:11:21;101035.00;;;2.00
9985;BMP180;16737;50.932;6.780;2022-12-18T11:14:03;101071.00;;;2.00
9985;BMP180;16737;50.932;6.780;2022-12-18T11:16:36;101054.00;;;2.10
9985;BMP180;16737;50.932;6.780;2022-12-18T11:19:23;101072.00;;;2.10
9985;BMP180;16737;50.932;6.780;2022-12-18T11:21:52;101058.00;;;2.10
9985;BMP180;16737;50.932;6.780;2022-12-18T11:24:26;101074.00;;;1.70
9985;BMP180;16737;50.932;6.780;2022-12-18T11:26:54;101047.00;;;2.10
9985;BMP180;16737;50.932;6.780;2022-12-18T11:29:32;101035.00;;;2.10
9985;BMP180;16737;50.932;6.780;2022-12-18T11:32:31;101036.00;;;2.10
9985;BMP180;16737;50.932;6.780;2022-12-18T11:35:13;101042.00;;;2.10
9985;BMP180;16737;50.932;6.780;2022-12-18T11:37:46;101034.00;;;2.10
9985;BMP180;16737;50.932;6.780;2022-12-18T11:40:20;101031.00;;;2.10
9985;BMP180;16737;50.932;6.780;2022-12-18T11:42:55;101030.00;;;2.10
9985;BMP180;16737;50.932;6.780;2022-12-18T11:45:29;101022.00;;;2.20
9985;BMP180;16737;50.932;6.780;2022-12-18T11:48:03;101025.00;;;2.20
9985;BMP180;16737;50.932;6.780;2022-12-18T11:50:42;101030.00;;;2.10
9985;BMP180;16737;50.932;6.780;2022-12-18T11:53:12;101036.00;;;2.10
9985;BMP180;16737;50.932;6.780;2022-12-18T11:55:49;101025.00;;;2.10
9985;BMP180;16737;50.932;6.780;2022-12-18T11:58:43;101015.00;;;2.10
9985;BMP180;16737;50.932;6.780;2022-12-18T12:01:32;101014.00;;;2.10
9985;BMP180;16737;50.932;6.780;2022-12-18T12:04:44;101004.00;;;2.10
9985;BMP180;16737;50.932;6.780;2022-12-18T12:07:29;101001.00;;;2.00
9985;BMP180;16737;50.932;6.780;2022-12-18T12:10:11;101007.00;;;2.10
9985;BMP180;16737;50.932;6.780;2022-12-18T12:12:59;101011.00;;;2.00
9985;BMP180;16737;50.932;6.780;2022-12-18T12:15:39;100992.00;;;2.00
9985;BMP180;16737;50.932;6.780;2022-12-18T12:18:25;100997.00;;;2.10
9985;BMP180;16737;50.932;6.780;2022-12-18T12:21:03;100991.00;;;2.10
9985;BMP180;16737;50.932;6.780;2022-12-18T12:23:43;100988.00;;;2.10
9985;BMP180;16737;50.932;6.780;2022-12-18T12:26:18;101001.00;;;2.10
9985;BMP180;16737;50.932;6.780;2022-12-18T12:29:03;101013.00;;;2.10
9985;BMP180;16737;50.932;6.780;2022-12-18T12:31:49;101007.00;;;2.10
9985;BMP180;16737;50.932;6.780;2022-12-18T12:34:26;100999.00;;;2.10
9985;BMP180;16737;50.932;6.780;2022-12-18T12:37:13;100997.00;;;2.00
9985;BMP180;16737;50.932;6.780;2022-12-18T12:39:46;100986.00;;;2.10
9985;BMP180;16737;50.932;6.780;2022-12-18T12:42:20;100969.00;;;2.10
9985;BMP180;16737;50.932;6.780;2022-12-18T12:45:18;100992.00;;;2.10
9985;BMP180;16737;50.932;6.780;2022-12-18T12:47:49;100982.00;;;2.10
9985;BMP180;16737;50.932;6.780;2022-12-18T12:50:21;100997.00;;;2.10
9985;BMP180;16737;50.932;6.780;2022-12-18T12:52:52;100993.00;;;2.10
9985;BMP180;16737;50.932;6.780;2022-12-18T12:55:24;100987.00;;;2.10
9985;BMP180;16737;50.932;6.780;2022-12-18T12:58:00;100981.00;;;2.10
9985;BMP180;16737;50.932;6.780;2022-12-18T13:00:38;100978.00;;;2.20
9985;BMP180;16737;50.932;6.780;2022-12-18T13:03:19;100994.00;;;2.20
9985;BMP180;16737;50.932;6.780;2022-12-18T13:05:54;100998.00;;;2.20
9985;BMP180;16737;50.932;6.780;2022-12-18T13:08:26;101001.00;;;2.20
9985;BMP180;16737;50.932;6.780;2022-12-18T13:10:55;100990.00;;;2.20
9985;BMP180;16737;50.932;6.780;2022-12-18T13:13:51;100984.00;;;2.20
9985;BMP180;16737;50.932;6.780;2022-12-18T13:16:20;100981.00;;;2.20
9985;BMP180;16737;50.932;6.780;2022-12-18T13:18:49;100978.00;;;2.20
9985;BMP180;16737;50.932;6.780;2022-12-18T13:21:24;100967.00;;;2.20
9985;BMP180;16737;50.932;6.780;2022-12-18T13:23:53;100960.00;;;2.20
9985;BMP180;16737;50.932;6.780;2022-12-18T13:26:33;100935.00;;;2.20
9985;BMP180;16737;50.932;6.780;2022-12-18T13:29:02;100963.00;;;2.20
9985;BMP180;16737;50.932;6.780;2022-12-18T13:32:22;100927.00;;;2.20
9985;BMP180;16737;50.932;6.780;2022-12-18T13:35:37;100947.00;;;2.20
9985;BMP180;16737;50.932;6.780;2022-12-18T13:38:21;100941.00;;;2.20
9985;BMP180;16737;50.932;6.780;2022-12-18T13:40:58;100933.00;;;2.20
9985;BMP180;16737;50.932;6.780;2022-12-18T13:43:31;100939.00;;;2.20
9985;BMP180;16737;50.932;6.780;2022-12-18T13:46:04;100933.00;;;2.10
9985;BMP180;16737;50.932;6.780;2022-12-18T13:48:35;100932.00;;;2.20
9985;BMP180;16737;50.932;6.780;2022-12-18T13:51:06;100928.00;;;2.20
9985;BMP180;16737;50.932;6.780;2022-12-18T13:53:43;100932.00;;;2.20
9985;BMP180;16737;50.932;6.780;2022-12-18T13:56:21;100912.00;;;2.20
9985;BMP180;16737;50.932;6.780;2022-12-18T13:59:18;100901.00;;;2.10
9985;BMP180;16737;50.932;6.780;2022-12-18T14:01:50;100911.00;;;2.10
9985;BMP180;16737;50.932;6.780;2022-12-18T14:04:22;100926.00;;;2.10
9985;BMP180;16737;50.932;6.780;2022-12-18T14:06:56;100918.00;;;2.10
9985;BMP180;16737;50.932;6.780;2022-12-18T14:09:29;100893.00;;;2.10
9985;BMP180;16737;50.932;6.780;2022-12-18T14:11:57;100887.00;;;2.10
9985;BMP180;16737;50.932;6.780;2022-12-18T14:14:42;100907.00;;;2.00
9985;BMP180;16737;50.932;6.780;2022-12-18T14:17:11;100912.00;;;2.10
9985;BMP180;16737;50.932;6.780;2022-12-18T14:19:43;100904.00;;;2.10
9985;BMP180;16737;50.932;6.780;2022-12-18T14:22:18;100909.00;;;2.10
9985;BMP180;16737;50.932;6.780;2022-12-18T14:25:05;100901.00;;;2.10
9985;BMP180;16737;50.932;6.780;2022-12-18T14:27:42;100875.00;;;2.10
9985;BMP180;16737;50.932;6.780;2022-12-18T14:30:27;100865.00;;;2.00
9985;BMP180;16737;50.932;6.780;2022-12-18T14:33:03;100883.00;;;2.10
9985;BMP180;16737;50.932;6.780;2022-12-18T14:35:31;100889.00;;;2.10
9985;BMP180;16737;50.932;6.780;2022-12-18T14:38:28;100873.00;;;2.00
9985;BMP180;16737;50.932;6.780;2022-12-18T14:41:01;100889.00;;;2.00
9985;BMP180;16737;50.932;6.780;2022-12-18T14:43:32;100877.00;;;2.00